Time;durP1;ratioP1;P1;durP2;ratioP2;P2;SDS_P1;SDS_P2;PMS_P1;PMS_P2;Temp;Humidity;BMP_temperature;BMP_pressure;BME280_temperature;BME280_humidity;BME280_pressure;Samples;Min_cycle;Max_cycle;Signal;HPM_P1;HPM_P2
2021/08/30 00:05:24;;;;;;;38.10;35.70;;;;;;;16.63;100.00;102500.16;1971937;73;33012;-74
2021/08/30 00:10:48;;;;;;;36.90;34.20;;;;;;;16.58;100.00;102497.36;1972258;72;32963;-74
2021/08/30 00:19:19;;;;;;;37.37;35.17;;;;;;;16.54;100.00;102495.66;2061286;69;30523;-69
2021/08/30 00:21:49;;;;;;;36.97;34.67;;;;;;;16.56;100.00;102493.39;1950653;73;26205;-69
2021/08/30 00:24:23;;;;;;;37.13;34.93;;;;;;;16.59;100.00;102499.05;1993584;72;26189;-69
2021/08/30 00:26:51;;;;;;;38.00;35.73;;;;;;;16.50;100.00;102502.13;1950256;73;26243;-74
2021/08/30 00:29:25;;;;;;;38.23;35.83;;;;;;;16.50;100.00;102502.13;1993607;72;26682;-69
2021/08/30 00:31:54;;;;;;;37.60;35.20;;;;;;;16.49;100.00;102502.69;1950863;73;26844;-70
2021/08/30 00:34:27;;;;;;;37.03;34.93;;;;;;;16.53;100.00;102502.95;1993658;72;26734;-74
2021/08/30 00:36:57;;;;;;;38.23;35.67;;;;;;;16.50;100.00;102502.13;1950562;73;26230;-74
2021/08/30 00:39:29;;;;;;;38.60;36.20;;;;;;;16.49;100.00;102508.86;1993752;72;26184;-69
2021/08/30 00:41:59;;;;;;;37.57;35.37;;;;;;;16.51;100.00;102510.27;1950644;73;26174;-74
2021/08/30 00:44:29;;;;;;;39.10;36.67;;;;;;;16.39;100.00;102499.34;1993668;72;24143;-73
2021/08/30 00:47:00;;;;;;;38.33;35.93;;;;;;;16.42;100.00;102502.16;1950648;73;26189;-74
2021/08/30 00:49:30;;;;;;;39.70;37.23;;;;;;;16.39;100.00;102504.10;1993682;72;26215;-74
2021/08/30 00:52:00;;;;;;;38.53;36.13;;;;;;;16.47;100.00;102511.13;1950713;73;26265;-69
2021/08/30 00:54:32;;;;;;;39.77;37.27;;;;;;;16.32;100.00;102504.41;1993623;72;24143;-69
2021/08/30 00:57:04;;;;;;;38.63;36.27;;;;;;;16.40;100.00;102505.23;1950618;73;26645;-74
2021/08/30 00:59:38;;;;;;;38.40;36.00;;;;;;;16.45;100.00;102504.37;1993758;72;26735;-73
2021/08/30 01:02:07;;;;;;;36.20;34.10;;;;;;;16.45;100.00;102506.34;1950470;73;26178;-74
2021/08/30 01:07:38;;;;;;;38.83;36.33;;;;;;;16.47;100.00;102509.16;1972053;73;32988;-69
2021/08/30 01:10:12;;;;;;;38.00;35.80;;;;;;;16.50;100.00;102514.19;1934741;74;24204;-69
2021/08/30 01:12:46;;;;;;;38.80;36.50;;;;;;;16.45;100.00;102506.34;1934703;74;24598;-73
2021/08/30 01:15:19;;;;;;;38.87;36.53;;;;;;;16.40;100.00;102506.63;1934759;74;26710;-74
2021/08/30 01:20:59;;;;;;;39.77;37.47;;;;;;;16.43;100.00;102503.00;1971444;71;31426;-70
2021/08/30 01:26:26;;;;;;;39.50;37.10;;;;;;;16.44;100.00;102507.45;1972134;72;32908;-74
2021/08/30 01:31:57;;;;;;;39.57;37.17;;;;;;;16.43;100.00;102510.82;1972007;73;31049;-74
2021/08/30 01:37:23;;;;;;;40.83;38.23;;;;;;;16.29;100.00;102509.19;1972109;73;33370;-74
2021/08/30 01:42:52;;;;;;;37.97;35.53;;;;;;;16.37;100.00;102514.78;1971874;73;33049;-71
2021/08/30 01:48:19;;;;;;;39.57;37.17;;;;;;;16.41;100.00;102520.09;1972101;73;33004;-70
2021/08/30 01:53:44;;;;;;;39.43;36.93;;;;;;;16.38;100.00;102517.31;1971911;73;30933;-70
2021/08/30 02:04:58;;;;;;;39.27;36.87;;;;;;;16.22;100.00;102522.64;1972112;73;32985;-74
2021/08/30 02:10:23;;;;;;;38.97;36.47;;;;;;;16.32;100.00;102512.83;1972100;73;33064;-74
2021/08/30 02:15:48;;;;;;;40.70;38.27;;;;;;;16.22;100.00;102514.23;1971897;73;32890;-70
2021/08/30 02:21:20;;;;;;;41.00;38.23;;;;;;;16.26;100.00;102511.14;1968605;71;33415;-70
2021/08/30 02:26:48;;;;;;;39.83;37.33;;;;;;;16.24;100.00;102506.95;1972126;73;33395;-70
2021/08/30 02:29:22;;;;;;;41.13;38.70;;;;;;;16.18;100.00;102507.52;1934823;74;26637;-70
2021/08/30 02:34:51;;;;;;;41.67;38.87;;;;;;;16.11;100.00;102506.97;1972129;73;33622;-70
2021/08/30 02:40:22;;;;;;;42.33;39.57;;;;;;;16.15;100.00;102508.64;1972130;73;33555;-74
2021/08/30 02:45:47;;;;;;;42.40;39.77;;;;;;;16.15;100.00;102511.45;1972139;73;33482;-70
2021/08/30 02:51:14;;;;;;;43.27;40.60;;;;;;;16.01;100.00;102508.92;1971863;73;32991;-74
2021/08/30 02:56:42;;;;;;;44.37;41.47;;;;;;;16.06;100.00;102505.57;1972111;73;33538;-73
2021/08/30 03:02:08;;;;;;;42.90;40.20;;;;;;;15.95;100.00;102512.31;1972104;73;33457;-73
2021/08/30 03:07:34;;;;;;;43.00;40.30;;;;;;;15.97;100.00;102507.81;1972136;73;33430;-73
2021/08/30 03:13:03;;;;;;;43.47;40.67;;;;;;;15.97;100.00;102517.63;1972107;73;33450;-70
2021/08/30 03:18:29;;;;;;;43.20;40.37;;;;;;;15.95;100.00;102520.73;1971907;73;32920;-70
2021/08/30 03:23:55;;;;;;;43.67;40.80;;;;;;;15.84;100.00;102514.83;1972016;73;33425;-70
2021/08/30 03:29:22;;;;;;;46.30;43.40;;;;;;;15.89;100.00;102509.23;1972111;73;33534;-70
2021/08/30 03:34:49;;;;;;;44.87;41.93;;;;;;;15.86;100.00;102517.64;1971892;73;33039;-73
2021/08/30 03:40:16;;;;;;;44.83;41.73;;;;;;;15.86;100.00;102512.59;1972072;73;33479;-70
2021/08/30 03:45:41;;;;;;;45.50;42.30;;;;;;;15.80;100.00;102516.50;1971925;73;32906;-72
2021/08/30 03:51:08;;;;;;;47.13;44.03;;;;;;;15.84;100.00;102519.02;1972044;73;34296;-70
2021/08/30 03:56:35;;;;;;;46.50;43.20;;;;;;;15.74;100.00;102517.09;1971980;73;32974;-70
2021/08/30 04:02:00;;;;;;;46.80;43.70;;;;;;;15.72;100.00;102519.31;1887383;73;39746;-70
2021/08/30 04:07:26;;;;;;;45.33;42.10;;;;;;;15.74;100.00;102518.48;1971897;73;33054;-73
2021/08/30 04:12:51;;;;;;;45.10;42.10;;;;;;;15.70;100.00;102513.72;1972067;72;33494;-70
2021/08/30 04:18:16;;;;;;;48.17;44.67;;;;;;;15.59;100.00;102514.26;1972125;73;33440;-73
2021/08/30 04:23:40;;;;;;;48.13;45.03;;;;;;;15.49;100.00;102518.40;1971893;73;33073;-73
2021/08/30 04:29:06;;;;;;;49.17;45.87;;;;;;;15.48;100.00;102522.34;1971920;73;33075;-73
2021/08/30 04:34:32;;;;;;;47.03;44.00;;;;;;;15.53;100.00;102520.98;1972009;73;32981;-70
2021/08/30 04:39:56;;;;;;;45.53;42.17;;;;;;;15.56;100.00;102513.42;1971944;73;32971;-72
2021/08/30 04:45:21;;;;;;;44.90;41.90;;;;;;;15.45;100.00;102513.92;1972128;73;33399;-72
2021/08/30 04:50:45;;;;;;;45.80;42.70;;;;;;;15.60;100.00;102522.95;1971883;73;32990;-72
2021/08/30 04:56:09;;;;;;;46.30;43.20;;;;;;;15.58;100.00;102531.33;1971935;73;33067;-70
2021/08/30 05:01:34;;;;;;;46.97;43.83;;;;;;;15.52;100.00;102531.06;1971896;73;32945;-73
2021/08/30 05:06:58;;;;;;;47.50;44.30;;;;;;;15.49;100.00;102533.80;1972210;73;33008;-69
2021/08/30 05:12:26;;;;;;;45.03;41.97;;;;;;;15.49;100.00;102541.65;1971906;73;32913;-72
2021/08/30 05:17:52;;;;;;;45.10;42.30;;;;;;;15.60;100.00;102526.30;1971952;72;32941;-70
2021/08/30 05:23:17;;;;;;;45.30;42.03;;;;;;;15.59;100.00;102531.62;1937326;74;33072;-70
2021/08/30 05:28:42;;;;;;;45.27;42.47;;;;;;;15.69;100.00;102537.25;1971927;73;32998;-73
2021/08/30 05:34:07;;;;;;;45.90;42.70;;;;;;;15.67;100.00;102534.71;1972155;73;33498;-71
2021/08/30 05:39:31;;;;;;;44.40;41.60;;;;;;;15.73;100.00;102536.97;1972149;73;33499;-70
2021/08/30 05:45:00;;;;;;;45.57;42.57;;;;;;;15.71;100.00;102534.98;1971945;73;32922;-73
2021/08/30 05:50:27;;;;;;;45.43;42.47;;;;;;;15.73;100.00;102530.81;1971862;73;32912;-73
2021/08/30 05:55:52;;;;;;;46.37;43.47;;;;;;;15.78;100.00;102530.81;1971898;73;32910;-70
2021/08/30 06:01:17;;;;;;;48.97;45.77;;;;;;;15.78;100.00;102527.17;1971944;73;32913;-70
2021/08/30 06:06:33;;;;;;;47.17;44.10;;;;;;;15.76;100.00;102535.84;1977680;72;32977;-75
2021/08/30 06:12:01;;;;;;;45.97;42.80;;;;;;;15.86;100.00;102535.02;1972137;73;33456;-70
2021/08/30 06:17:26;;;;;;;47.50;44.07;;;;;;;15.91;100.00;102533.62;1971875;73;32986;-70
2021/08/30 06:22:51;;;;;;;49.10;46.00;;;;;;;15.93;100.00;102539.22;1945221;73;33440;-75
2021/08/30 06:28:16;;;;;;;46.37;43.27;;;;;;;16.01;100.00;102539.77;1972136;73;33415;-74
2021/08/30 06:33:41;;;;;;;47.87;44.50;;;;;;;16.00;100.00;102546.52;1972167;73;33523;-74
2021/08/30 06:39:05;;;;;;;47.97;44.83;;;;;;;16.02;100.00;102552.66;1972132;73;32980;-70
2021/08/30 06:44:30;;;;;;;46.77;43.67;;;;;;;16.10;100.00;102545.09;1972212;73;32973;-70
2021/08/30 06:49:54;;;;;;;47.43;44.40;;;;;;;16.09;100.00;102558.27;1971932;73;32900;-70
2021/08/30 06:55:19;;;;;;;48.07;44.87;;;;;;;16.17;100.00;102554.89;1972142;73;33380;-75
2021/08/30 07:00:43;;;;;;;46.07;43.07;;;;;;;16.21;100.00;102557.45;1971932;73;32936;-70
2021/08/30 07:06:08;;;;;;;46.27;43.13;;;;;;;16.23;100.00;102555.73;1972156;73;33523;-70
2021/08/30 07:11:34;;;;;;;49.10;45.90;;;;;;;16.24;100.00;102555.47;1972160;73;33563;-70
2021/08/30 07:16:59;;;;;;;47.00;43.90;;;;;;;16.29;100.00;102558.83;1972171;73;33017;-74
2021/08/30 07:22:24;;;;;;;44.70;41.60;;;;;;;16.35;100.00;102552.92;1971949;73;33079;-74
2021/08/30 07:27:53;;;;;;;46.67;43.73;;;;;;;16.45;100.00;102561.04;1972054;73;32915;-73
2021/08/30 07:33:20;;;;;;;48.43;45.37;;;;;;;16.58;100.00;102562.73;1972117;73;33585;-71
2021/08/30 07:38:46;;;;;;;46.07;42.87;;;;;;;16.55;100.00;102556.83;1972148;73;33483;-69
2021/08/30 07:44:10;;;;;;;45.70;42.70;;;;;;;16.73;100.00;102559.03;1972139;73;33540;-70
2021/08/30 07:49:37;;;;;;;43.87;41.00;;;;;;;16.89;100.00;102555.63;1972137;73;33479;-72
2021/08/30 07:55:04;;;;;;;43.33;40.60;;;;;;;16.97;100.00;102562.90;1971984;73;33109;-70
2021/08/30 08:00:31;;;;;;;42.90;40.30;;;;;;;16.96;100.00;102564.02;1971841;73;32927;-70
2021/08/30 08:05:56;;;;;;;43.70;41.00;;;;;;;16.93;100.00;102568.81;1938543;74;33569;-69
2021/08/30 08:11:20;;;;;;;43.73;40.87;;;;;;;17.00;100.00;102568.48;1971827;73;32988;-70
2021/08/30 08:16:45;;;;;;;42.87;40.07;;;;;;;16.99;100.00;102573.82;1971856;73;32953;-70
2021/08/30 08:22:09;;;;;;;44.37;41.57;;;;;;;17.02;100.00;102581.13;1971873;73;31081;-72
2021/08/30 08:27:36;;;;;;;43.53;40.97;;;;;;;17.19;100.00;102584.44;1971857;72;30997;-69
2021/08/30 08:33:05;;;;;;;42.00;39.60;;;;;;;17.28;100.00;102579.05;1972165;72;33427;-72
2021/08/30 08:38:30;;;;;;;41.83;39.23;;;;;;;17.33;100.00;102593.64;1971989;73;30963;-71
2021/08/30 08:43:57;;;;;;;40.60;38.10;;;;;;;17.25;100.00;102600.12;1972142;73;33470;-71
2021/08/30 08:49:22;;;;;;;41.00;38.40;;;;;;;17.47;100.00;102599.73;1971922;72;32900;-72
2021/08/30 08:54:48;;;;;;;41.50;39.00;;;;;;;17.51;100.00;102605.05;1972174;73;32999;-70
2021/08/30 09:00:14;;;;;;;39.40;37.00;;;;;;;17.58;100.00;102601.97;1972003;73;31083;-71
2021/08/30 09:05:39;;;;;;;40.47;38.07;;;;;;;17.67;100.00;102602.45;1971976;73;31076;-72
2021/08/30 09:11:16;;;;;;;39.47;37.07;;;;;;;17.82;100.00;102611.36;1971950;73;33017;-74
2021/08/30 09:16:47;;;;;;;38.40;36.10;;;;;;;18.18;100.00;102611.35;1971998;73;30981;-74
2021/08/30 09:22:16;;;;;;;37.47;35.33;;;;;;;18.37;100.00;102606.42;1963599;71;32992;-73
2021/08/30 09:27:45;;;;;;;39.53;37.13;;;;;;;18.39;100.00;102605.02;1971953;73;30932;-74
2021/08/30 09:33:15;;;;;;;39.00;36.80;;;;;;;18.19;100.00;102606.57;1971942;73;31051;-71
2021/08/30 09:38:55;;;;;;;40.07;37.67;;;;;;;18.46;100.00;102609.72;1971964;73;30948;-75
2021/08/30 09:44:26;;;;;;;39.17;36.83;;;;;;;18.54;100.00;102609.10;1972170;72;31490;-71
2021/08/30 09:49:53;;;;;;;38.47;36.20;;;;;;;18.71;100.00;102610.06;1972145;73;31546;-71
2021/08/30 09:55:18;;;;;;;38.63;36.43;;;;;;;18.60;100.00;102609.34;1972019;73;30948;-69
2021/08/30 10:00:45;;;;;;;38.57;36.37;;;;;;;18.75;100.00;102613.95;1971990;73;30931;-70
2021/08/30 10:06:12;;;;;;;36.13;34.13;;;;;;;18.88;100.00;102617.48;1972168;73;30984;-71
2021/08/30 10:11:38;;;;;;;33.10;31.27;;;;;;;18.89;100.00;102611.28;1971925;73;30984;-71
2021/08/30 10:17:06;;;;;;;35.47;33.40;;;;;;;18.82;100.00;102613.05;1971969;73;31001;-69
2021/08/30 10:22:31;;;;;;;33.33;31.43;;;;;;;18.89;100.00;102614.94;1948894;73;30954;-70
2021/08/30 10:27:59;;;;;;;33.03;31.23;;;;;;;19.04;100.00;102609.11;1972146;73;31514;-71
2021/08/30 10:33:25;;;;;;;34.00;32.20;;;;;;;19.35;100.00;102610.14;1971961;73;30929;-72
2021/08/30 10:39:05;;;;;;;35.50;33.50;;;;;;;18.83;100.00;102619.50;1971971;73;30919;-71
2021/08/30 10:44:34;;;;;;;35.73;33.63;;;;;;;18.54;100.00;102618.11;1972084;73;30999;-72
2021/08/30 10:50:00;;;;;;;34.23;32.33;;;;;;;18.98;100.00;102623.57;1971928;73;30924;-73
2021/08/30 10:55:43;;;;;;;34.67;32.73;;;;;;;19.00;100.00;102614.23;1971878;73;31000;-70
2021/08/30 11:01:33;;;;;;;34.60;32.70;;;;;;;18.91;100.00;102618.28;2016370;71;30914;-74
2021/08/30 11:07:18;;;;;;;36.03;33.90;;;;;;;18.69;100.00;102608.12;2008258;71;30858;-71
2021/08/30 11:12:44;;;;;;;36.27;34.17;;;;;;;18.75;100.00;102621.56;1972103;73;30994;-70
2021/08/30 11:18:10;;;;;;;38.83;36.63;;;;;;;18.72;100.00;102628.64;1971883;73;31028;-70
2021/08/30 11:23:37;;;;;;;38.23;36.03;;;;;;;18.38;100.00;102627.80;1971937;73;31001;-70
2021/08/30 11:29:04;;;;;;;40.97;38.87;;;;;;;18.47;100.00;102630.26;1971925;73;30953;-69
2021/08/30 11:34:32;;;;;;;39.37;37.27;;;;;;;18.62;100.00;102627.32;1971991;73;30970;-70
2021/08/30 11:40:00;;;;;;;36.53;34.33;;;;;;;18.69;100.00;102627.83;1971904;73;30969;-68
2021/08/30 11:45:27;;;;;;;36.07;34.07;;;;;;;18.82;100.00;102631.36;1971979;73;31038;-69
2021/08/30 11:50:52;;;;;;;36.87;34.83;;;;;;;18.76;100.00;102632.53;1971938;72;31030;-72
2021/08/30 11:56:18;;;;;;;36.63;34.53;;;;;;;18.73;100.00;102628.91;1971949;73;30983;-69
2021/08/30 12:01:42;;;;;;;38.60;36.50;;;;;;;18.82;100.00;102623.47;1971971;73;31035;-70
2021/08/30 12:07:16;;;;;;;37.93;35.63;;;;;;;18.71;100.00;102622.73;1972190;73;31433;-70
2021/08/30 12:12:55;;;;;;;40.67;38.57;;;;;;;18.73;100.00;102626.66;1971927;73;30990;-68
2021/08/30 12:18:21;;;;;;;42.83;40.70;;;;;;;18.69;100.00;102628.39;1972045;73;31073;-71
2021/08/30 12:23:47;;;;;;;36.00;34.00;;;;;;;18.63;100.00;102641.67;1971913;73;31075;-68
2021/08/30 12:29:13;;;;;;;43.03;40.73;;;;;;;18.55;100.00;102638.94;1972138;73;30970;-69
2021/08/30 12:34:40;;;;;;;43.17;41.07;;;;;;;18.57;100.00;102635.80;1972043;73;30969;-73
2021/08/30 12:40:07;;;;;;;43.33;41.03;;;;;;;18.69;100.00;102630.64;1971897;73;31098;-70
2021/08/30 12:45:32;;;;;;;42.63;40.43;;;;;;;18.85;100.00;102630.75;1972062;73;31047;-74
2021/08/30 12:50:57;;;;;;;43.80;41.50;;;;;;;18.71;100.00;102622.73;1971894;73;31004;-74
2021/08/30 12:56:21;;;;;;;43.50;41.10;;;;;;;18.56;100.00;102638.38;1971918;72;31035;-70
2021/08/30 13:01:46;;;;;;;44.73;42.23;;;;;;;18.29;100.00;102643.07;1972208;72;30977;-75
2021/08/30 13:07:10;;;;;;;43.87;41.47;;;;;;;18.44;100.00;102637.89;1972071;73;30998;-69
2021/08/30 13:12:35;;;;;;;44.13;41.63;;;;;;;18.47;100.00;102643.77;1972164;73;31507;-67
2021/08/30 13:18:02;;;;;;;44.60;42.20;;;;;;;18.62;100.00;102640.83;1971997;73;31120;-68
2021/08/30 13:23:27;;;;;;;42.60;40.20;;;;;;;18.77;100.00;102633.37;1971945;73;31055;-67
2021/08/30 13:28:54;;;;;;;39.43;37.20;;;;;;;18.67;100.00;102633.47;1971980;73;31065;-75
2021/08/30 13:34:19;;;;;;;43.10;40.60;;;;;;;18.69;100.00;102638.25;1971943;73;31029;-74
2021/08/30 13:39:44;;;;;;;43.67;41.17;;;;;;;18.47;100.00;102642.92;1972221;73;30985;-70
2021/08/30 13:45:12;;;;;;;42.00;39.50;;;;;;;18.51;100.00;102639.22;1971973;73;30986;-75
2021/08/30 13:50:38;;;;;;;40.27;37.87;;;;;;;18.50;100.00;102633.87;1972182;73;31557;-68
2021/08/30 13:56:02;;;;;;;48.40;45.80;;;;;;;18.46;100.00;102638.42;1956001;73;28078;-68
2021/08/30 14:01:33;;;;;;;42.57;39.93;;;;;;;18.46;100.00;102634.20;1972012;73;30953;-67
2021/08/30 14:06:58;;;;;;;37.53;35.33;;;;;;;18.52;100.00;102635.84;1971962;73;31044;-68
2021/08/30 14:12:22;;;;;;;38.97;36.53;;;;;;;18.41;100.00;102637.90;1972060;73;30958;-74
2021/08/30 14:17:47;;;;;;;37.10;34.90;;;;;;;18.32;100.00;102643.03;1971957;73;31022;-74
2021/08/30 14:23:12;;;;;;;38.60;36.40;;;;;;;18.26;100.00;102652.67;1937115;74;31090;-74
2021/08/30 14:28:37;;;;;;;38.40;36.13;;;;;;;18.26;100.00;102645.64;1971878;73;30962;-70
2021/08/30 14:34:01;;;;;;;38.10;35.67;;;;;;;18.36;100.00;102647.78;1972204;73;31426;-69
2021/08/30 14:39:29;;;;;;;35.33;33.33;;;;;;;18.43;100.00;102641.27;1972078;73;31606;-68
2021/08/30 14:44:53;;;;;;;37.03;34.93;;;;;;;18.42;100.00;102639.58;1971984;73;30945;-68
2021/08/30 14:50:18;;;;;;;35.37;33.37;;;;;;;18.88;100.00;102637.19;1971997;73;31011;-75
2021/08/30 14:55:43;;;;;;;33.27;31.27;;;;;;;19.04;100.00;102628.83;1971990;73;30956;-71
2021/08/30 15:01:08;;;;;;;35.87;33.50;;;;;;;19.15;100.00;102631.54;1972044;73;31013;-70
2021/08/30 15:06:35;;;;;;;35.60;33.60;;;;;;;19.27;100.00;102628.57;1972168;73;33377;-76
2021/08/30 15:12:01;;;;;;;35.93;33.93;;;;;;;19.13;100.00;102642.25;1972145;73;31442;-70
2021/08/30 15:17:25;;;;;;;35.67;33.67;;;;;;;18.49;100.00;102654.14;1972145;73;33382;-75
2021/08/30 15:22:55;;;;;;;35.93;33.80;;;;;;;18.27;100.00;102655.77;1972054;73;31577;-70
2021/08/30 15:28:20;;;;;;;34.17;32.27;;;;;;;18.31;100.00;102655.45;1971934;72;30965;-75
2021/08/30 15:33:47;;;;;;;37.03;34.83;;;;;;;18.27;100.00;102649.54;1972164;73;31400;-70
2021/08/30 15:39:13;;;;;;;36.80;34.47;;;;;;;18.17;100.00;102650.48;1972173;73;30955;-70
2021/08/30 15:44:38;;;;;;;36.30;34.20;;;;;;;18.27;100.00;102654.36;1972221;73;31014;-71
2021/08/30 15:50:04;;;;;;;35.67;33.67;;;;;;;18.22;100.00;102651.02;1971868;73;32951;-76
2021/08/30 15:55:28;;;;;;;36.17;34.00;;;;;;;18.27;100.00;102644.51;1972132;73;30940;-76
2021/08/30 16:00:53;;;;;;;35.97;33.77;;;;;;;18.16;100.00;102649.36;1971898;73;30989;-71
2021/08/30 16:06:21;;;;;;;36.47;34.37;;;;;;;18.06;100.00;102644.64;1972178;73;30936;-72
2021/08/30 16:11:45;;;;;;;36.50;34.23;;;;;;;18.14;100.00;102648.23;1972152;73;33360;-73
2021/08/30 16:17:10;;;;;;;35.60;33.60;;;;;;;18.08;100.00;102647.17;1971908;72;31017;-75
2021/08/30 16:22:35;;;;;;;36.40;34.30;;;;;;;18.03;100.00;102642.42;1948303;73;30935;-69
2021/08/30 16:28:00;;;;;;;35.20;33.20;;;;;;;18.03;100.00;102643.83;1971965;73;31071;-69
2021/08/30 16:33:24;;;;;;;36.93;34.73;;;;;;;18.05;100.00;102644.39;1972320;73;33371;-70
2021/08/30 16:38:49;;;;;;;36.03;33.93;;;;;;;18.06;100.00;102648.86;1972222;73;31539;-70
2021/08/30 16:44:14;;;;;;;37.07;34.87;;;;;;;18.07;100.00;102649.14;1972234;73;31013;-69
2021/08/30 16:49:39;;;;;;;37.37;34.97;;;;;;;18.08;100.00;102649.42;1971933;73;30989;-70
2021/08/30 16:55:04;;;;;;;38.23;35.63;;;;;;;17.97;100.00;102651.20;1972117;73;33430;-72
2021/08/30 17:00:29;;;;;;;38.10;35.70;;;;;;;17.95;100.00;102645.02;1971999;73;31021;-70
2021/08/30 17:05:54;;;;;;;38.37;35.83;;;;;;;17.88;100.00;102651.53;1972159;73;33359;-73
2021/08/30 17:11:20;;;;;;;35.30;33.13;;;;;;;17.99;100.00;102638.52;1971945;73;33008;-73
2021/08/30 17:16:45;;;;;;;35.67;33.50;;;;;;;18.07;100.00;102639.30;1972045;73;30952;-75
2021/08/30 17:22:10;;;;;;;36.17;34.00;;;;;;;18.05;100.00;102644.39;1964277;71;31576;-71
2021/08/30 17:27:34;;;;;;;37.23;34.90;;;;;;;17.96;100.00;102643.33;1972053;73;30982;-73
2021/08/30 17:33:06;;;;;;;37.47;35.27;;;;;;;17.83;100.00;102641.72;1972073;73;31027;-73
2021/08/30 17:38:37;;;;;;;36.60;34.40;;;;;;;17.86;100.00;102640.57;1972056;73;31089;-73
2021/08/30 17:44:02;;;;;;;36.27;34.10;;;;;;;17.84;100.00;102643.41;1971955;73;30949;-74
2021/08/30 17:49:30;;;;;;;37.17;35.00;;;;;;;17.83;100.00;102641.72;1971992;73;32955;-73
2021/08/30 17:54:59;;;;;;;34.90;32.90;;;;;;;17.97;100.00;102637.14;1971968;73;32958;-73
2021/08/30 18:00:24;;;;;;;36.27;34.17;;;;;;;17.86;100.00;102634.95;1972098;73;30931;-73
2021/08/30 18:05:56;;;;;;;35.37;33.37;;;;;;;17.85;100.00;102643.09;1972294;73;33360;-73
2021/08/30 18:11:21;;;;;;;35.13;33.33;;;;;;;17.74;100.00;102639.53;1971970;73;31001;-73
2021/08/30 18:16:47;;;;;;;32.93;31.13;;;;;;;17.77;100.00;102641.47;1972230;73;31475;-73
2021/08/30 18:22:12;;;;;;;34.13;32.23;;;;;;;17.79;100.00;102640.63;1971957;71;31034;-73
2021/08/30 18:27:36;;;;;;;33.47;31.37;;;;;;;17.86;100.00;102650.97;1972002;73;30941;-74
2021/08/30 18:33:05;;;;;;;31.03;29.33;;;;;;;17.90;100.00;102645.05;1972022;73;31058;-73
2021/08/30 18:38:31;;;;;;;29.13;27.73;;;;;;;17.84;100.00;102646.22;1971950;73;31126;-71
2021/08/30 18:43:56;;;;;;;28.67;27.23;;;;;;;17.85;100.00;102650.13;1971989;72;32970;-71
2021/08/30 18:49:20;;;;;;;27.97;26.57;;;;;;;17.78;100.00;102648.77;1972082;73;33077;-71
2021/08/30 18:54:45;;;;;;;29.07;27.67;;;;;;;17.74;100.00;102654.98;1972257;73;33397;-73
2021/08/30 19:00:13;;;;;;;30.07;28.50;;;;;;;17.82;100.00;102649.31;1972043;73;31021;-75
2021/08/30 19:05:41;;;;;;;29.57;28.17;;;;;;;17.80;100.00;102647.94;1972021;73;31014;-73
2021/08/30 19:11:06;;;;;;;31.07;29.57;;;;;;;17.77;100.00;102656.37;1972239;73;30942;-79
2021/08/30 19:16:32;;;;;;;31.90;30.20;;;;;;;17.71;100.00;102654.14;1972014;73;33020;-74
2021/08/30 19:21:57;;;;;;;30.60;29.10;;;;;;;17.61;100.00;102660.39;1965175;71;32909;-74
2021/08/30 19:27:24;;;;;;;27.77;26.17;;;;;;;17.61;100.00;102671.64;1972253;73;31041;-72
2021/08/30 19:32:49;;;;;;;27.70;26.30;;;;;;;17.59;100.00;102669.66;1972017;73;30940;-72
2021/08/30 19:38:14;;;;;;;27.90;26.50;;;;;;;17.60;100.00;102674.16;1971985;73;30958;-75
2021/08/30 19:43:39;;;;;;;28.37;26.83;;;;;;;17.57;100.00;102688.77;1972014;73;33409;-73
2021/08/30 19:49:08;;;;;;;34.40;32.70;;;;;;;17.59;100.00;102683.72;1972039;73;31036;-73
2021/08/30 19:54:34;;;;;;;31.60;30.00;;;;;;;17.60;100.00;102691.02;1972172;72;31452;-76
2021/08/30 19:59:59;;;;;;;30.80;29.30;;;;;;;17.57;100.00;102687.36;1972170;73;33469;-71
2021/08/30 20:05:24;;;;;;;30.40;28.90;;;;;;;17.53;100.00;102687.66;1972177;73;32981;-73
2021/08/30 20:10:49;;;;;;;31.40;29.83;;;;;;;17.46;100.00;102689.36;1972062;72;31015;-70
2021/08/30 20:16:14;;;;;;;31.77;30.27;;;;;;;17.38;100.00;102701.19;1972487;72;31475;-79
2021/08/30 20:21:39;;;;;;;29.87;28.47;;;;;;;17.40;100.00;102693.33;1959441;73;31027;-74
2021/08/30 20:27:04;;;;;;;30.37;28.77;;;;;;;17.34;100.00;102695.87;1972170;73;31428;-73
2021/08/30 20:32:32;;;;;;;31.40;29.90;;;;;;;17.37;100.00;102690.27;1972137;73;31038;-70
2021/08/30 20:37:57;;;;;;;32.13;30.53;;;;;;;17.35;100.00;102704.59;1971982;73;31057;-78
2021/08/30 20:43:22;;;;;;;33.37;31.67;;;;;;;17.29;100.00;102711.33;1972137;73;30921;-80
2021/08/30 20:49:06;;;;;;;34.93;33.03;;;;;;;17.22;100.00;102710.80;2016426;71;30845;-72
2021/08/30 20:54:31;;;;;;;33.13;31.30;;;;;;;17.15;100.00;102707.45;1972212;73;30942;-73
2021/08/30 20:59:58;;;;;;;32.73;31.03;;;;;;;17.19;100.00;102705.77;1972001;73;30955;-75
2021/08/30 21:05:22;;;;;;;32.73;30.93;;;;;;;17.16;100.00;102707.70;1972222;73;33531;-67
2021/08/30 21:10:52;;;;;;;33.10;31.50;;;;;;;17.20;100.00;102708.86;1972216;73;31570;-79
2021/08/30 21:16:23;;;;;;;31.63;29.93;;;;;;;17.18;100.00;102716.70;1972235;73;31478;-76
2021/08/30 21:21:54;;;;;;;29.10;27.50;;;;;;;17.16;100.00;102702.94;1956812;73;33461;-73
2021/08/30 21:27:20;;;;;;;30.50;29.10;;;;;;;17.19;100.00;102705.77;1972079;73;31018;-75
2021/08/30 21:32:47;;;;;;;29.80;28.23;;;;;;;17.19;100.00;102707.16;1972042;73;30928;-77
2021/08/30 21:38:12;;;;;;;32.17;30.47;;;;;;;17.21;100.00;102704.34;1972108;73;31035;-81
2021/08/30 21:43:37;;;;;;;31.27;29.50;;;;;;;17.16;100.00;102709.12;1971981;73;33008;-70
2021/08/30 21:49:04;;;;;;;32.03;30.33;;;;;;;17.13;100.00;102711.09;1972358;73;33372;-78
2021/08/30 21:54:31;;;;;;;31.03;29.33;;;;;;;17.11;100.00;102714.21;1972212;73;31446;-70
2021/08/30 22:00:01;;;;;;;31.57;29.87;;;;;;;17.05;100.00;102718.70;1971957;73;32968;-77
2021/08/30 22:05:26;;;;;;;33.40;31.50;;;;;;;17.12;100.00;102725.70;1972047;73;33058;-78
2021/08/30 22:10:51;;;;;;;34.60;32.67;;;;;;;17.05;100.00;102718.70;1972278;73;30957;-78
2021/08/30 22:16:17;;;;;;;34.60;32.57;;;;;;;16.99;100.00;102723.47;1972422;72;30935;-78
2021/08/30 22:21:42;;;;;;;36.63;34.33;;;;;;;16.85;100.00;102730.81;1966326;71;33005;-75
2021/08/30 22:27:07;;;;;;;37.50;35.40;;;;;;;16.78;100.00;102733.88;1971942;73;32981;-70
2021/08/30 22:32:32;;;;;;;38.13;35.83;;;;;;;16.65;100.00;102740.61;1971960;73;31009;-74
2021/08/30 22:37:56;;;;;;;38.53;36.13;;;;;;;16.66;100.00;102744.55;1972018;73;30980;-74
2021/08/30 22:43:22;;;;;;;37.00;34.77;;;;;;;16.65;100.00;102751.28;1971935;72;32924;-75
2021/08/30 22:48:50;;;;;;;37.63;35.33;;;;;;;16.64;100.00;102750.18;1972208;73;33444;-74
2021/08/30 22:54:06;;;;;;;38.37;35.77;;;;;;;16.59;100.00;102758.03;2061406;69;33129;-74
2021/08/30 22:56:36;;;;;;;37.87;35.37;;;;;;;16.55;100.00;102757.43;2030744;70;26156;-70
2021/08/30 22:59:07;;;;;;;37.63;35.43;;;;;;;16.53;100.00;102769.48;2030772;70;24671;-73
2021/08/30 23:01:37;;;;;;;40.10;37.60;;;;;;;16.53;100.00;102761.91;2030775;71;24156;-71
2021/08/30 23:04:07;;;;;;;38.70;36.40;;;;;;;16.47;100.00;102765.00;2030712;71;26169;-73
2021/08/30 23:06:38;;;;;;;38.37;35.80;;;;;;;16.38;100.00;102763.30;2030723;71;24120;-71
2021/08/30 23:09:09;;;;;;;40.33;37.53;;;;;;;16.32;100.00;102763.84;2030739;71;26159;-71
2021/08/30 23:14:34;;;;;;;39.17;36.50;;;;;;;16.46;100.00;102773.13;1972150;73;33402;-70
2021/08/30 23:19:59;;;;;;;40.67;37.97;;;;;;;16.43;100.00;102772.28;1972232;73;31555;-74